KAVX/AVX METAR and TAF weather

Enter ICAO airport designator
Station Type Date Time Source
KAVX METAR 2022/05/26 04:51 UTC NOAA

KAVX 260451Z AUTO 09004KT 1/4SM FG VV001 13/12 A2993 RMK AO2 SLP125 T01330122 $


Station Type Date Time Source
KAVX Decoded METAR 2022/05/26 04:51 UTC NOAA

AVALON CATALINA AIRPORT, CA, United States (KAVX) 33-24N 118-25W 482M
May 26, 2022 - 12:51 AM EDT / 2022.05.26 0451 UTC
Wind: from the E (090 degrees) at 5 MPH (4 KT):0
Visibility: 1/4 mile(s):0
Sky conditions: obscured
Weather: fog
Temperature: 55.9 F (13.3 C)
Dew Point: 54.0 F (12.2 C)
Relative Humidity: 93%
Pressure (altimeter): 29.93 in. Hg (1013 hPa)
ob: KAVX 260451Z AUTO 09004KT 1/4SM FG VV001 13/12 A2993 RMK AO2 SLP125 T01330122
cycle: 5

Station Type Date Time Source
KAVX TAF UTC NOAA

Error!

Example: see airport list